Main page
METAR-TAF:

METAR-TAF

Airports :

Istrana Air Base

Treviso, Italy

latitude: 45-41N, longitude: 012-06E, elevation: 45 m

Current weather observation

The report was made 29 minutes ago, at 12:55 UTC
Temperature 10°C
Humidity 71%
Pressure 1001 hPa
Visibility 10 km or more
no clouds below 1500 m and no cumulonimbus

METAR: LIPS 141255Z /////KT CAVOK 10/05 Q1001 RMK SKC VIS MIN 9999 WIND THR26 00000KT WIND THR08 00000KT BLU

Time: 14:24 (13:24 UTC)

Forecast

The report was made 2 hours and 24 minutes ago, at 11:00 UTC
Forecast valid from 14 at 12 UTC to 14 at 21 UTC
Wind 5 kt from the North
Visibility 10 km or more
no clouds below 1500 m and no cumulonimbus

TAF: LIPS 141100Z 1412/1421 01005KT CAVOK

Weather observations and forecasts of more than 4000 airports (METAR and TAF reports).

The available stations are represented by yellow and red dots on the map.

Hover mouse over dot to see the name of the station.

Then click to see weather observations and forecasts.

To change the map : click on the green buttons with a black cross to zoom in, on the green button with a dash to zoom out, or on the green arrows for adjacent maps.


METAR-TAF: